createdAt,value
2022-09-12T00:01:25.660Z,71.55
2022-09-12T00:03:54.113Z,71.29
2022-09-12T00:06:24.597Z,71.00
2022-09-12T00:08:52.870Z,71.82
2022-09-12T00:11:20.764Z,71.26
2022-09-12T00:13:48.718Z,70.49
2022-09-12T00:16:18.018Z,70.27
2022-09-12T00:18:48.184Z,71.04
2022-09-12T00:21:17.140Z,70.93
2022-09-12T00:23:45.957Z,71.31
2022-09-12T00:26:14.725Z,70.43
2022-09-12T00:28:42.998Z,70.20
2022-09-12T00:31:16.361Z,69.29
2022-09-12T00:33:45.186Z,68.55
2022-09-12T00:36:17.004Z,68.96
2022-09-12T00:38:45.927Z,69.07
2022-09-12T00:41:17.975Z,68.80
2022-09-12T00:43:47.914Z,68.26
2022-09-12T00:46:25.807Z,68.48
2022-09-12T00:48:58.414Z,68.37
2022-09-12T00:51:30.556Z,68.94
2022-09-12T00:54:00.516Z,69.35
2022-09-12T00:56:29.001Z,69.19
2022-09-12T00:59:01.742Z,69.73
2022-09-12T01:01:37.293Z,70.47
2022-09-12T01:04:05.369Z,70.30
2022-09-12T01:06:38.090Z,70.66
2022-09-12T01:09:06.589Z,69.82
2022-09-12T01:11:38.053Z,70.11
2022-09-12T01:14:07.540Z,70.86
2022-09-12T01:16:42.247Z,71.03
2022-09-12T01:19:32.899Z,71.60
2022-09-12T01:22:19.314Z,71.60
2022-09-12T01:25:00.066Z,70.38
2022-09-12T01:28:06.769Z,70.18
2022-09-12T01:30:50.669Z,70.59
2022-09-12T01:33:37.116Z,70.37
2022-09-12T01:36:29.971Z,70.35
2022-09-12T01:39:01.185Z,70.10
2022-09-12T01:41:35.534Z,70.37
2022-09-12T01:44:11.898Z,70.35
2022-09-12T01:46:46.178Z,69.84
2022-09-12T01:49:18.993Z,69.97
2022-09-12T01:51:57.417Z,71.11
2022-09-12T01:54:31.834Z,70.69
2022-09-12T01:57:08.312Z,70.62
2022-09-12T01:59:39.912Z,70.19
2022-09-12T02:02:35.208Z,70.66
2022-09-12T02:05:07.942Z,70.45
2022-09-12T02:07:40.837Z,70.57
2022-09-12T02:10:16.069Z,70.16
2022-09-12T02:12:49.702Z,69.96
2022-09-12T02:15:27.870Z,70.04
2022-09-12T02:18:02.362Z,70.10
2022-09-12T02:20:50.770Z,70.27
2022-09-12T02:23:24.148Z,69.93
2022-09-12T02:25:55.855Z,69.64
2022-09-12T02:28:28.898Z,69.66
2022-09-12T02:31:32.236Z,69.75
2022-09-12T02:34:13.445Z,69.77
2022-09-12T02:36:51.013Z,70.02
2022-09-12T02:39:21.247Z,70.27
2022-09-12T02:41:52.948Z,70.09
2022-09-12T02:44:21.674Z,70.73
2022-09-12T02:46:55.259Z,70.96
2022-09-12T02:49:24.865Z,70.87
2022-09-12T02:51:53.035Z,70.58
2022-09-12T02:54:22.019Z,70.28
2022-09-12T02:56:52.205Z,70.37
2022-09-12T02:59:24.046Z,70.72
2022-09-12T03:02:04.999Z,70.78
2022-09-12T03:04:59.695Z,70.73
2022-09-12T03:07:43.699Z,70.73
2022-09-12T03:10:20.869Z,70.78
2022-09-12T03:12:59.461Z,70.03
2022-09-12T03:15:38.070Z,69.84
2022-09-12T03:18:19.329Z,69.56
2022-09-12T03:20:54.803Z,69.59
2022-09-12T03:23:30.327Z,68.95
2022-09-12T03:28:54.186Z,69.58
2022-09-12T03:31:22.244Z,69.66
2022-09-12T03:33:50.088Z,68.96
2022-09-12T03:36:23.378Z,68.66
2022-09-12T03:38:51.198Z,68.63
2022-09-12T03:41:19.774Z,68.69
2022-09-12T03:43:48.834Z,68.31
2022-09-12T03:46:16.698Z,68.69
2022-09-12T03:48:44.571Z,68.59
2022-09-12T03:51:12.666Z,68.58
2022-09-12T03:53:41.868Z,68.48
2022-09-12T03:56:12.012Z,68.36
2022-09-12T03:58:40.247Z,68.57
2022-09-12T04:01:12.809Z,68.20
2022-09-12T04:03:41.244Z,68.15
2022-09-12T04:06:14.584Z,68.26
2022-09-12T04:08:45.307Z,68.32
2022-09-12T04:11:15.105Z,68.29
2022-09-12T04:13:45.117Z,68.22
2022-09-12T04:16:14.484Z,68.47
2022-09-12T04:18:43.589Z,69.27
2022-09-12T04:21:13.670Z,69.46
2022-09-12T04:23:43.185Z,69.63
2022-09-12T04:26:11.882Z,69.88
2022-09-12T04:28:39.846Z,69.95
2022-09-12T04:31:33.065Z,69.90
2022-09-12T04:34:02.264Z,70.06
2022-09-12T04:36:31.117Z,70.13
2022-09-12T04:39:01.641Z,71.01
2022-09-12T04:41:31.790Z,70.89
2022-09-12T04:44:02.291Z,70.86
2022-09-12T04:46:31.708Z,70.83
2022-09-12T04:48:59.843Z,70.54
2022-09-12T04:51:31.023Z,70.82
2022-09-12T04:54:01.789Z,70.78
2022-09-12T04:56:30.606Z,69.77
2022-09-12T04:59:00.527Z,69.93
2022-09-12T05:01:30.292Z,70.05
2022-09-12T05:03:59.983Z,69.87
2022-09-12T05:06:30.249Z,69.88
2022-09-12T05:08:58.667Z,70.19
2022-09-12T05:11:46.836Z,69.25
2022-09-12T05:14:17.568Z,69.39
2022-09-12T05:16:49.687Z,69.50
2022-09-12T05:19:17.962Z,69.71
2022-09-12T05:21:46.006Z,69.50
2022-09-12T05:24:16.849Z,70.11
2022-09-12T05:26:48.446Z,69.27
2022-09-12T05:29:16.487Z,69.41
2022-09-12T05:31:44.416Z,68.53
2022-09-12T05:34:12.756Z,68.05
2022-09-12T05:36:43.450Z,67.64
2022-09-12T05:39:12.105Z,68.01
2022-09-12T05:41:40.006Z,68.25
2022-09-12T05:44:14.612Z,69.19
2022-09-12T05:46:45.013Z,69.31
2022-09-12T05:49:14.553Z,69.36
2022-09-12T05:51:44.919Z,68.64
2022-09-12T05:54:17.837Z,67.89
2022-09-12T05:56:46.504Z,67.19
2022-09-12T05:59:20.334Z,66.96
2022-09-12T06:01:50.821Z,66.49
2022-09-12T06:04:19.980Z,66.08
2022-09-12T06:06:48.863Z,65.50
2022-09-12T06:09:18.239Z,63.87
2022-09-12T06:11:47.240Z,64.31
2022-09-12T06:14:17.906Z,65.90
2022-09-12T06:16:47.218Z,64.99
2022-09-12T06:19:17.843Z,64.22
2022-09-12T06:21:47.568Z,63.68
2022-09-12T06:24:15.385Z,63.31
2022-09-12T06:26:43.868Z,63.83
2022-09-12T06:29:15.500Z,64.60
2022-09-12T06:31:48.080Z,64.97
2022-09-12T06:34:17.327Z,64.31
2022-09-12T06:36:47.393Z,62.98
2022-09-12T06:39:17.371Z,62.04
2022-09-12T06:41:46.004Z,63.67
2022-09-12T06:44:16.569Z,63.86
2022-09-12T06:46:46.270Z,64.13
2022-09-12T06:49:14.812Z,63.93
2022-09-12T06:51:43.170Z,62.39
2022-09-12T06:54:13.882Z,62.63
2022-09-12T06:56:41.756Z,62.35
2022-09-12T06:59:09.769Z,60.99
2022-09-12T07:01:37.645Z,61.66
2022-09-12T07:04:07.130Z,61.63
2022-09-12T07:06:38.374Z,62.30
2022-09-12T07:09:07.978Z,60.86
2022-09-12T07:11:38.090Z,57.12
2022-09-12T07:14:07.893Z,46.42
2022-09-12T07:16:36.642Z,47.30
2022-09-12T07:19:08.322Z,51.32
2022-09-12T07:21:39.995Z,55.15
2022-09-12T07:24:09.754Z,57.14
2022-09-12T07:26:38.523Z,56.15
2022-09-12T07:29:34.776Z,58.37
2022-09-12T07:31:54.928Z,55.23
2022-09-12T07:34:24.153Z,55.94
2022-09-12T07:36:52.078Z,56.87
2022-09-12T07:39:20.074Z,58.58
2022-09-12T07:41:47.911Z,59.91
2022-09-12T07:44:15.721Z,60.95
2022-09-12T07:46:43.535Z,60.32
2022-09-12T07:49:13.508Z,59.40
2022-09-12T07:51:42.851Z,59.44
2022-09-12T07:54:11.168Z,58.07
2022-09-12T07:56:39.631Z,59.09
2022-09-12T07:59:08.113Z,58.67
2022-09-12T08:01:36.098Z,54.19
2022-09-12T08:04:04.948Z,50.98
2022-09-12T08:06:35.988Z,50.76
2022-09-12T08:09:07.884Z,51.90
2022-09-12T08:11:36.182Z,52.24
2022-09-12T08:14:05.747Z,53.59
2022-09-12T08:16:35.541Z,54.93
2022-09-12T08:19:04.567Z,53.97
2022-09-12T08:21:34.295Z,53.28
2022-09-12T08:24:04.643Z,58.07
2022-09-12T08:26:35.032Z,58.31
2022-09-12T08:29:04.175Z,60.04
2022-09-12T08:31:36.479Z,61.15
2022-09-12T08:34:05.532Z,59.95
2022-09-12T08:36:34.400Z,58.39
2022-09-12T08:39:05.157Z,60.64
2022-09-12T08:41:38.797Z,60.07
2022-09-12T08:44:42.475Z,60.17
2022-09-12T08:47:18.953Z,60.35
2022-09-12T08:49:53.947Z,59.91
2022-09-12T08:52:28.316Z,59.93
2022-09-12T08:54:57.348Z,60.96
2022-09-12T08:57:26.727Z,59.47
2022-09-12T08:59:55.116Z,60.68
2022-09-12T09:02:42.089Z,61.48
2022-09-12T09:05:20.875Z,59.92
2022-09-12T09:08:05.700Z,59.28
2022-09-12T09:10:42.157Z,58.70
2022-09-12T09:13:37.156Z,58.24
2022-09-12T09:16:15.850Z,57.86
2022-09-12T09:18:46.102Z,59.04
2022-09-12T09:21:23.070Z,59.54
2022-09-12T09:23:54.696Z,58.41
2022-09-12T09:26:27.965Z,57.59
2022-09-12T09:29:02.051Z,55.38
2022-09-12T09:31:55.929Z,55.95
2022-09-12T09:34:26.306Z,56.15
2022-09-12T09:37:05.993Z,54.80
2022-09-12T09:39:50.419Z,53.77
2022-09-12T09:42:31.139Z,52.41
2022-09-12T09:45:04.035Z,52.28
2022-09-12T09:47:31.974Z,52.06
2022-09-12T09:50:00.429Z,53.38
2022-09-12T09:52:32.986Z,52.03
2022-09-12T09:55:02.789Z,51.97
2022-09-12T09:57:58.930Z,51.03
2022-09-12T10:00:31.831Z,51.16
2022-09-12T10:03:23.152Z,52.26
2022-09-12T10:05:53.036Z,51.55
2022-09-12T10:08:22.734Z,51.36
2022-09-12T10:10:55.381Z,50.40
2022-09-12T10:13:28.327Z,49.12
2022-09-12T10:16:03.261Z,46.31
2022-09-12T10:18:39.029Z,45.23
2022-09-12T10:21:42.521Z,43.78
2022-09-12T10:24:22.763Z,43.84
2022-09-12T10:26:56.780Z,42.10
2022-09-12T10:29:28.568Z,43.04
2022-09-12T10:32:01.055Z,44.14
2022-09-12T10:34:33.491Z,44.89
2022-09-12T10:37:04.397Z,43.98
2022-09-12T10:39:34.222Z,45.23
2022-09-12T10:42:02.542Z,46.18
2022-09-12T10:44:32.755Z,46.43
2022-09-12T10:47:21.143Z,46.15
2022-09-12T10:49:51.008Z,46.95
2022-09-12T10:52:24.198Z,48.89
2022-09-12T10:54:52.433Z,49.03
2022-09-12T10:58:07.825Z,47.63
2022-09-12T11:00:41.853Z,48.33
2022-09-12T11:03:23.885Z,47.49
2022-09-12T11:05:58.584Z,45.47
2022-09-12T11:08:41.908Z,46.43
2022-09-12T11:11:32.136Z,44.75
2022-09-12T11:14:19.226Z,47.43
2022-09-12T11:16:54.677Z,47.71
2022-09-12T11:19:50.986Z,49.72
2022-09-12T11:22:32.647Z,52.08
2022-09-12T11:25:23.674Z,51.54
2022-09-12T11:28:19.906Z,52.07
2022-09-12T11:30:57.513Z,52.26
2022-09-12T11:33:42.791Z,53.07
2022-09-12T11:36:28.345Z,53.70
2022-09-12T11:39:03.598Z,53.43
2022-09-12T11:41:34.540Z,52.35
2022-09-12T11:44:10.547Z,54.03
2022-09-12T11:46:42.258Z,52.29
2022-09-12T11:49:28.489Z,51.11
2022-09-12T11:52:04.040Z,52.04
2022-09-12T11:54:39.037Z,51.99
2022-09-12T11:57:16.181Z,50.91
2022-09-12T11:59:50.014Z,49.29
2022-09-12T12:02:26.767Z,49.80
2022-09-12T12:05:06.478Z,49.01
2022-09-12T12:07:49.104Z,48.20
2022-09-12T12:10:26.338Z,46.82
2022-09-12T12:12:56.056Z,46.07
2022-09-12T12:15:26.055Z,47.14
2022-09-12T12:18:17.976Z,45.73
2022-09-12T12:20:45.910Z,44.05
2022-09-12T12:23:26.892Z,41.45
2022-09-12T12:25:56.796Z,40.74
2022-09-12T12:28:59.330Z,40.99
2022-09-12T12:31:27.435Z,38.91
2022-09-12T12:34:28.946Z,39.47
2022-09-12T12:36:57.481Z,38.79
2022-09-12T12:40:01.230Z,41.85
2022-09-12T12:43:04.617Z,40.91
2022-09-12T12:46:04.090Z,39.68
2022-09-12T12:48:37.324Z,39.92
2022-09-12T12:51:34.090Z,39.37
2022-09-12T12:54:04.186Z,40.14
2022-09-12T12:56:39.323Z,40.76
2022-09-12T12:59:22.308Z,40.86
2022-09-12T13:01:55.149Z,42.20
2022-09-12T13:04:26.620Z,44.35
2022-09-12T13:07:05.772Z,42.49
2022-09-12T13:09:40.821Z,43.95
2022-09-12T13:12:11.560Z,44.52
2022-09-12T13:14:53.894Z,43.31
2022-09-12T13:17:27.275Z,41.25
2022-09-12T13:20:26.826Z,39.25
2022-09-12T13:22:54.020Z,39.81
2022-09-12T13:25:25.864Z,38.86
2022-09-12T13:28:06.412Z,40.46
2022-09-12T13:30:37.012Z,39.37
2022-09-12T13:33:23.149Z,40.79
2022-09-12T13:36:16.659Z,41.29
2022-09-12T13:38:58.638Z,40.33
2022-09-12T13:42:03.191Z,41.34
2022-09-12T13:44:43.787Z,42.02
2022-09-12T13:47:17.373Z,43.62
2022-09-12T13:49:47.665Z,43.64
2022-09-12T13:52:20.080Z,42.97
2022-09-12T13:54:51.017Z,43.66
2022-09-12T13:57:34.235Z,41.71
2022-09-12T14:00:06.678Z,40.60
2022-09-12T14:02:37.826Z,42.50
2022-09-12T14:05:20.129Z,41.22
2022-09-12T14:07:56.329Z,39.62
2022-09-12T14:10:32.189Z,38.67
2022-09-12T14:13:01.947Z,36.06
2022-09-12T14:15:32.263Z,37.80
2022-09-12T14:18:03.279Z,37.48
2022-09-12T14:20:33.001Z,38.65
2022-09-12T14:23:05.390Z,38.75
2022-09-12T14:25:41.774Z,39.21
2022-09-12T14:28:14.641Z,40.23
2022-09-12T14:30:42.600Z,38.49
2022-09-12T14:33:22.302Z,39.22
2022-09-12T14:35:52.543Z,38.35
2022-09-12T14:38:25.800Z,37.50
2022-09-12T14:41:01.521Z,36.66
2022-09-12T14:43:33.876Z,35.59
2022-09-12T14:46:04.337Z,37.79
2022-09-12T14:48:38.409Z,35.97
2022-09-12T14:51:07.153Z,35.85
2022-09-12T14:53:37.015Z,37.65
2022-09-12T14:56:10.247Z,37.30
2022-09-12T14:58:38.584Z,36.41
2022-09-12T15:01:27.736Z,38.57
2022-09-12T15:03:57.877Z,37.04
2022-09-12T15:06:30.865Z,37.66
2022-09-12T15:09:11.790Z,37.58
2022-09-12T15:11:39.728Z,38.18
2022-09-12T15:14:13.408Z,37.59
2022-09-12T15:16:46.799Z,38.82
2022-09-12T15:19:19.886Z,39.66
2022-09-12T15:21:47.710Z,39.22
2022-09-12T15:24:15.531Z,41.15
2022-09-12T15:26:43.393Z,40.96
2022-09-12T15:29:11.233Z,40.39
2022-09-12T15:31:41.222Z,42.62
2022-09-12T15:34:10.631Z,41.45
2022-09-12T15:36:39.897Z,41.83
2022-09-12T15:39:13.211Z,43.16
2022-09-12T15:41:41.128Z,43.69
2022-09-12T15:44:13.224Z,44.71
2022-09-12T15:46:41.480Z,44.08
2022-09-12T15:49:09.424Z,44.65
2022-09-12T15:51:37.514Z,44.56
2022-09-12T15:54:06.998Z,45.05
2022-09-12T15:56:34.888Z,44.17
2022-09-12T15:59:02.743Z,44.57
2022-09-12T16:01:30.813Z,45.88
2022-09-12T16:03:59.403Z,45.61
2022-09-12T16:06:27.901Z,45.90
2022-09-12T16:08:55.736Z,46.92
2022-09-12T16:11:27.447Z,47.28
2022-09-12T16:13:57.832Z,47.58
2022-09-12T16:16:25.793Z,47.69
2022-09-12T16:18:53.791Z,48.15
2022-09-12T16:21:21.685Z,47.40
2022-09-12T16:23:50.066Z,48.67
2022-09-12T16:26:18.687Z,49.11
2022-09-12T16:28:48.126Z,49.11
2022-09-12T16:31:41.700Z,50.53
2022-09-12T16:34:09.637Z,51.69
2022-09-12T16:36:37.587Z,51.79
2022-09-12T16:39:05.504Z,52.27
2022-09-12T16:41:33.437Z,52.93
2022-09-12T16:44:02.903Z,53.01
2022-09-12T16:46:31.326Z,53.40
2022-09-12T16:48:59.953Z,53.60
2022-09-12T16:51:31.939Z,54.12
2022-09-12T16:53:59.851Z,54.29
2022-09-12T16:56:27.707Z,54.82
2022-09-12T16:58:55.851Z,54.90
2022-09-12T17:01:27.045Z,55.42
2022-09-12T17:03:56.537Z,56.24
2022-09-12T17:06:25.190Z,56.24
2022-09-12T17:08:54.963Z,56.57
2022-09-12T17:11:25.356Z,56.85
2022-09-12T17:14:10.434Z,57.31
2022-09-12T17:16:41.864Z,58.18
2022-09-12T17:19:15.496Z,58.38
2022-09-12T17:21:43.346Z,59.22
2022-09-12T17:24:11.232Z,59.87
2022-09-12T17:26:39.094Z,60.67
2022-09-12T17:29:07.141Z,60.80
2022-09-12T17:31:35.815Z,60.72
2022-09-12T17:34:05.125Z,60.58
2022-09-12T17:36:33.120Z,60.99
2022-09-12T17:39:03.121Z,60.70
2022-09-12T17:41:32.913Z,60.91
2022-09-12T17:44:03.026Z,61.04
2022-09-12T17:46:34.982Z,60.74
2022-09-12T17:49:05.578Z,61.03
2022-09-12T17:51:33.523Z,60.79
2022-09-12T17:54:06.706Z,60.93
2022-09-12T17:56:36.977Z,60.83
2022-09-12T17:59:06.756Z,60.94
2022-09-12T18:01:52.571Z,60.80
2022-09-12T18:04:22.063Z,61.27
2022-09-12T18:06:50.170Z,61.91
2022-09-12T18:09:20.459Z,61.26
2022-09-12T18:11:49.252Z,61.16
2022-09-12T18:14:17.583Z,61.42
2022-09-12T18:16:45.982Z,61.72
2022-09-12T18:19:14.391Z,61.87
2022-09-12T18:21:43.913Z,61.65
2022-09-12T18:24:14.980Z,61.90
2022-09-12T18:26:43.617Z,61.33
2022-09-12T18:29:12.346Z,61.28
2022-09-12T18:31:40.603Z,61.78
2022-09-12T18:34:12.676Z,61.81
2022-09-12T18:36:43.947Z,61.85
2022-09-12T18:39:12.651Z,62.12
2022-09-12T18:41:41.274Z,62.40
2022-09-12T18:44:09.420Z,62.16
2022-09-12T18:46:37.282Z,61.92
2022-09-12T18:49:07.481Z,61.96
2022-09-12T18:51:37.432Z,62.50
2022-09-12T18:54:08.759Z,62.39
2022-09-12T18:56:38.863Z,62.22
2022-09-12T18:59:08.192Z,62.31
2022-09-12T19:01:38.103Z,61.98
2022-09-12T19:04:07.762Z,62.06
2022-09-12T19:06:37.903Z,62.60
2022-09-12T19:09:09.003Z,62.51
2022-09-12T19:11:38.803Z,62.00
2022-09-12T19:14:07.618Z,62.12
2022-09-12T19:16:36.548Z,62.12
2022-09-12T19:19:05.815Z,62.41
2022-09-12T19:21:37.407Z,62.31
2022-09-12T19:24:09.986Z,62.48
2022-09-12T19:26:38.897Z,62.35
2022-09-12T19:29:07.366Z,62.94
2022-09-12T19:31:35.734Z,63.31
2022-09-12T19:34:06.457Z,63.79
2022-09-12T19:36:44.743Z,63.60
2022-09-12T19:39:15.036Z,63.75
2022-09-12T19:41:42.773Z,63.81
2022-09-12T19:44:11.458Z,63.42
2022-09-12T19:46:40.493Z,63.39
2022-09-12T19:49:08.976Z,63.16
2022-09-12T19:51:36.731Z,62.93
2022-09-12T19:54:04.580Z,62.68
2022-09-12T19:56:34.106Z,62.81
2022-09-12T19:59:01.855Z,62.52
2022-09-12T20:01:30.215Z,62.36
2022-09-12T20:03:58.769Z,62.84
2022-09-12T20:06:27.821Z,62.77
2022-09-12T20:08:56.743Z,62.68
2022-09-12T20:11:25.558Z,63.19
2022-09-12T20:13:54.848Z,63.71
2022-09-12T20:16:25.552Z,63.52
2022-09-12T20:18:56.070Z,63.39
2022-09-12T20:21:31.100Z,63.48
2022-09-12T20:24:01.640Z,63.65
2022-09-12T20:26:30.988Z,63.67
2022-09-12T20:29:00.282Z,63.84
2022-09-12T20:31:28.688Z,63.65
2022-09-12T20:33:58.863Z,63.63
2022-09-12T20:36:26.883Z,64.76
2022-09-12T20:38:56.709Z,64.77
2022-09-12T20:41:26.313Z,64.69
2022-09-12T20:43:55.461Z,64.78
2022-09-12T20:46:26.069Z,64.97
2022-09-12T20:48:53.885Z,64.83
2022-09-12T20:51:24.623Z,64.74
2022-09-12T20:53:54.067Z,64.87
2022-09-12T20:56:22.360Z,65.11
2022-09-12T20:58:50.084Z,64.69
2022-09-12T21:01:18.232Z,64.69
2022-09-12T21:03:48.061Z,65.16
2022-09-12T21:06:17.314Z,65.29
2022-09-12T21:08:46.278Z,65.77
2022-09-12T21:11:14.509Z,65.73
2022-09-12T21:13:42.578Z,65.51
2022-09-12T21:16:13.155Z,65.78
2022-09-12T21:18:41.399Z,65.93
2022-09-12T21:21:13.050Z,65.59
2022-09-12T21:23:42.905Z,65.61
2022-09-12T21:26:11.192Z,65.84
2022-09-12T21:28:38.923Z,65.45
2022-09-12T21:31:07.419Z,65.18
2022-09-12T21:33:35.877Z,65.49
2022-09-12T21:36:05.663Z,65.16
2022-09-12T21:38:35.365Z,65.05
2022-09-12T21:41:04.786Z,65.83
2022-09-12T21:43:32.467Z,64.91
2022-09-12T21:46:00.330Z,65.31
2022-09-12T21:48:28.960Z,64.75
2022-09-12T21:50:57.045Z,65.18
2022-09-12T21:53:25.246Z,65.19
2022-09-12T21:55:54.524Z,65.16
2022-09-12T21:58:22.372Z,65.37
2022-09-12T22:00:51.221Z,65.42
2022-09-12T22:03:18.940Z,65.58
2022-09-12T22:05:51.329Z,65.59
2022-09-12T22:08:19.275Z,64.93
2022-09-12T22:10:47.257Z,64.36
2022-09-12T22:13:16.279Z,64.96
2022-09-12T22:15:45.353Z,64.67
2022-09-12T22:18:13.137Z,65.29
2022-09-12T22:20:40.923Z,65.70
2022-09-12T22:23:26.391Z,65.94
2022-09-12T22:25:55.490Z,65.96
2022-09-12T22:28:25.155Z,66.18
2022-09-12T22:30:54.981Z,65.70
2022-09-12T22:33:23.120Z,65.11
2022-09-12T22:35:51.858Z,65.74
2022-09-12T22:38:19.571Z,65.31
2022-09-12T22:40:47.319Z,65.45
2022-09-12T22:43:15.040Z,64.90
2022-09-12T22:45:44.182Z,64.67
2022-09-12T22:48:11.936Z,64.96
2022-09-12T22:50:39.661Z,65.32
2022-09-12T22:53:10.474Z,65.47
2022-09-12T22:55:38.314Z,65.28
2022-09-12T22:58:06.042Z,64.98
2022-09-12T23:00:34.243Z,65.35
2022-09-12T23:03:03.389Z,65.59
2022-09-12T23:05:31.493Z,65.06
2022-09-12T23:07:59.158Z,64.99
2022-09-12T23:10:27.599Z,64.60
2022-09-12T23:12:55.384Z,64.45
2022-09-12T23:15:23.128Z,65.07
2022-09-12T23:17:50.843Z,65.51
2022-09-12T23:20:19.899Z,66.21
2022-09-12T23:22:47.617Z,66.03
2022-09-12T23:25:15.427Z,66.02
2022-09-12T23:27:43.304Z,65.89
2022-09-12T23:30:13.017Z,65.83
2022-09-12T23:32:40.973Z,65.83
2022-09-12T23:35:08.894Z,65.67
2022-09-12T23:37:37.917Z,65.61
2022-09-12T23:40:06.814Z,65.65
2022-09-12T23:42:34.573Z,65.73
2022-09-12T23:45:02.304Z,65.96
2022-09-12T23:47:30.004Z,65.68
2022-09-12T23:49:57.954Z,65.99
2022-09-12T23:52:25.665Z,65.59
2022-09-12T23:54:54.701Z,65.62
2022-09-12T23:57:22.412Z,66.40
2022-09-12T23:59:50.152Z,66.02
